Flight UPS646

  • Submitted By: Thomas Lienert
  • Departure Airport: Hartsfield-Jackson Atlanta International Airport (KATL)
  • Arrival Airport: Louisville International Airport-Standiford Field KSDF - World Port (100-199) (KSDF)
  • Aircraft: B747-8F (N605UP)
  • Flight Time: 01.21.56
  • Date Submitted: 02/10/2018
  • Route: KATL WUDEE J89 SWAPP KSDF
  • Status: Accepted
Flight Details
Gross Revenue:
(236340 load / $ 11.15 per unit
$ 2, 635, 191.00
Fuel Cost:
(17620.7 fuel used @ 5.71 / unit)
$ 100, 614.20

Additional Log Information:

View Log

[18:23] NOTE: Boarding has started
[18:23] ----- Flight Opened -----
[18:23] UPSVAC kACARSII - 1.1.0.1
[18:23] FS: FSX
[18:23] FSUIPC: v4,939
[18:23] Flight Number: UPS646
[18:23] FS Aircraft: UPS Boeing 747-8F
[18:23] FS Model: B747
[18:23] FS Type: BOEING AIRCRAFT
[18:23] Departure: KATL
[18:23] Arrival: KSDF
[18:23] Flight Level: 28000
[18:23] Flight Type: C
[18:23] Cargo: 236340
[18:23] FOB: 95747 lbs
[18:23] Crash Detection Aircraft: Disabled
[18:23] FS: Paused
[18:23] Parking Brake: Engaged
[18:23] FS: Unpaused
[18:27] NOTE: Pushing back
[18:27] Parking Brake: Released
[18:27] Engine 2: Started
[18:27] Engine 1: Started
[18:27] Engine 3: Started
[18:27] Engine 4: Started
[18:27] Parking Brake: Engaged
[18:29] Parking Brake: Released
[18:31] NOTE: Taxi started
[18:32] Flaps: Position 6
[18:37] Parking Brake: Engaged
[18:38] Parking Brake: Released
[18:40] Autopilot: Engaged
[18:40] Altitude Data: 17 ft AGL | 1040 ft AMSL
[18:40] NOTE: ----- TAKE OFF -----
[18:40] Speed Data: 186 knots GS | 195 knots TAS | 195 knots IAS | 26 fpm VS
[18:40] FOB: 89677 lbs
[18:40] Heading: 90° | Pitch: 0° | Bank: 0°
[18:40] METAR: KATL 101718Z 14007KT 1/4SM R09R/1400V1600FT -RA FG VV002 13/13 A3013 RMK AO2 TWR VIS 1/4 RAB1659 P0001 T01280128
[18:40] NOTE: ----- TAKE OFF -----
[18:40] NOTE: ----- TAKE OFF -----
[18:40] NOTE: ----- TAKE OFF -----
[18:40] Speed Data: 186 knots GS | 195 knots TAS | 195 knots IAS | 26 fpm VS
[18:40] Speed Data: 186 knots GS | 195 knots TAS | 195 knots IAS | 26 fpm VS
[18:40] Speed Data: 186 knots GS | 195 knots TAS | 195 knots IAS | 26 fpm VS
[18:40] FOB: 89677 lbs
[18:40] Heading: 90° | Pitch: 0° | Bank: 0°
[18:40] FOB: 89677 lbs
[18:40] METAR: KATL 101718Z 14007KT 1/4SM R09R/1400V1600FT -RA FG VV002 13/13 A3013 RMK AO2 TWR VIS 1/4 RAB1659 P0001 T01280128
[18:40] FOB: 89677 lbs
[18:40] Heading: 90° | Pitch: 0° | Bank: 0°
[18:40] Heading: 90° | Pitch: 0° | Bank: 0°
[18:40] METAR: KATL 101718Z 14007KT 1/4SM R09R/1400V1600FT -RA FG VV002 13/13 A3013 RMK AO2 TWR VIS 1/4 RAB1659 P0001 T01280128
[18:40] METAR: KATL 101718Z 14007KT 1/4SM R09R/1400V1600FT -RA FG VV002 13/13 A3013 RMK AO2 TWR VIS 1/4 RAB1659 P0001 T01280128
[18:40] NOTE: Climb started
[18:40] Landing Gear: Retracted
[18:40] Speed Data: 192 knots GS | 200 knots TAS | 200 knots IAS | 2257 fpm VS
[18:40] Altitude Data: 161 ft AGL | 1184 ft AMSL
[18:41] Flaps: Position 5
[18:41] Speed Data: 209 knots GS | 217 knots TAS | 215 knots IAS | 2708 fpm VS
[18:41] Flaps: Position 4
[18:41] Speed Data: 229 knots GS | 233 knots TAS | 229 knots IAS | 2718 fpm VS
[18:41] Flaps: Position 3
[18:41] Speed Data: 244 knots GS | 233 knots TAS | 228 knots IAS | 2357 fpm VS
[18:41] Flaps: Position 2
[18:41] Speed Data: 266 knots GS | 234 knots TAS | 225 knots IAS | 2542 fpm VS
[18:42] Flaps: Position 0
[18:42] Speed Data: 279 knots GS | 252 knots TAS | 239 knots IAS | 2776 fpm VS
[18:45] Overspeed: Encountered
[18:45] Speed Data: 382 knots GS | 422 knots TAS | 355 knots IAS | -30 fpm VS
[18:45] Overspeed: Corrected
[18:45] Speed Data: 382 knots GS | 421 knots TAS | 354 knots IAS | 2593 fpm VS
[18:48] Overspeed: Encountered
[18:48] Speed Data: 417 knots GS | 460 knots TAS | 355 knots IAS | 189 fpm VS
[18:48] Overspeed: Corrected
[18:48] Speed Data: 417 knots GS | 460 knots TAS | 354 knots IAS | 1005 fpm VS
[18:51] NOTE: TOC reached
[18:51] NOTE: Cruise started
[18:51] Speed Data: 452 knots GS | 500 knots TAS | 341 knots IAS | 193 fpm VS
[18:51] FOB: 79975 lbs
[18:51] Heading: 267° | Pitch: 3° | Bank: -13°
[18:53] Overspeed: Encountered
[18:53] Speed Data: 565 knots GS | 516 knots TAS | 355 knots IAS | 3 fpm VS
[18:54] Overspeed: Corrected
[18:54] Speed Data: 563 knots GS | 516 knots TAS | 354 knots IAS | -13 fpm VS
[19:17] Overspeed: Encountered
[19:17] Speed Data: 546 knots GS | 513 knots TAS | 355 knots IAS | -2858 fpm VS
[19:18] NOTE: TOD reached
[19:18] NOTE: Descent started
[19:18] Speed Data: 542 knots GS | 510 knots TAS | 357 knots IAS | -3370 fpm VS
[19:18] FOB: 68564 lbs
[19:18] Heading: 351° | Pitch: 1° | Bank: 3°
[19:22] Overspeed: Corrected
[19:22] Speed Data: 445 knots GS | 414 knots TAS | 354 knots IAS | -1313 fpm VS
[19:26] NOTE: On approach
[19:27] Flaps: Position 1
[19:27] Speed Data: 293 knots GS | 296 knots TAS | 287 knots IAS | -278 fpm VS
[19:27] Flaps: Position 2
[19:27] Speed Data: 264 knots GS | 278 knots TAS | 268 knots IAS | 233 fpm VS
[19:27] Flaps: Position 3
[19:27] Speed Data: 233 knots GS | 253 knots TAS | 243 knots IAS | -311 fpm VS
[19:27] Flaps: Position 4
[19:27] Speed Data: 219 knots GS | 238 knots TAS | 229 knots IAS | -118 fpm VS
[19:27] Flaps: Position 5
[19:27] Speed Data: 215 knots GS | 233 knots TAS | 224 knots IAS | -89 fpm VS
[19:28] Flaps: Position 6
[19:28] Speed Data: 178 knots GS | 201 knots TAS | 192 knots IAS | 58 fpm VS
[19:37] Landing Gear: Extended
[19:37] Speed Data: 200 knots GS | 200 knots TAS | 199 knots IAS | -1317 fpm VS
[19:37] Altitude Data: 1008 ft AGL | 1473 ft AMSL
[19:38] NOTE: ----- LANDED -----
[19:38] Landing Rate: -792,78 fpm
[19:38] Speed Data: 153 knots GS | 152 knots TAS | 154 knots IAS | 110 fpm VS
[19:38] FOB: 59602 lbs
[19:38] Heading: 345° | Pitch: 2° | Bank: 0°
[19:38] METAR: KSDF 101812Z 34004KT 1SM R35R/5000V6000FT -DZ OVC006 09/08 A2997 RMK AO2 P0000 T00890083
[19:39] NOTE: Taxi started
[19:39] Flaps: Position 0
[19:46] NOTE: Arrived
[19:46] Parking Brake: Engaged
[19:46] Engine 1: Stopped
[19:46] Engine 2: Stopped
[19:46] Engine 3: Stopped
[19:46] Engine 4: Stopped
[19:52] NOTE: Flight Completed
[19:52] FS Aircraft: UPS Boeing 747-8F
[19:52] FS Model: B747
[19:52] FS Type: BOEING AIRCRAFT
[19:52] FOB: 56336 lbs
[19:52] Fuel Used: 38847 lbs
[19:52] Flight Time: 01:21:56
[19:52] Flight Time (Dawn): 00:00:00
[19:52] Flight Time (Day): 01:21:56
[19:52] Flight Time (Dusk): 00:00:00
[19:52] Flight Time (Night): 00:00:00
[19:52] Total Landings: 1
[19:52] MaxSim Rate: 0x
[19:52] UPSVAC kACARSII - 1.1.0.1
[19:52] ----- Flight Closed -----

Route Map